createdAt,value
2024-01-07T00:04:57.204Z,5.14
2024-01-07T00:09:58.566Z,4.92
2024-01-07T00:14:59.773Z,5.19
2024-01-07T00:20:02.043Z,5.04
2024-01-07T00:25:03.394Z,4.76
2024-01-07T00:30:04.714Z,4.93
2024-01-07T00:35:06.057Z,4.70
2024-01-07T00:40:07.397Z,4.53
2024-01-07T00:45:08.756Z,4.62
2024-01-07T00:50:11.584Z,4.69
2024-01-07T00:55:12.893Z,4.72
2024-01-07T01:00:14.142Z,4.73
2024-01-07T01:05:15.460Z,4.98
2024-01-07T01:10:18.092Z,4.63
2024-01-07T01:15:19.403Z,4.62
2024-01-07T01:20:20.653Z,4.53
2024-01-07T01:25:21.967Z,4.30
2024-01-07T01:30:23.336Z,4.26
2024-01-07T01:35:24.718Z,4.46
2024-01-07T01:40:25.954Z,4.27
2024-01-07T01:45:27.208Z,4.17
2024-01-07T01:50:28.482Z,4.46
2024-01-07T01:55:29.755Z,4.38
2024-01-07T02:00:31.108Z,4.42
2024-01-07T02:05:32.380Z,4.66
2024-01-07T02:10:38.432Z,4.82
2024-01-07T02:15:41.041Z,4.72
2024-01-07T02:20:42.357Z,4.38
2024-01-07T02:25:43.604Z,4.67
2024-01-07T02:30:44.897Z,4.64
2024-01-07T02:35:46.228Z,4.78
2024-01-07T02:40:47.484Z,4.86
2024-01-07T02:45:48.706Z,4.93
2024-01-07T02:50:50.033Z,4.88
2024-01-07T02:55:51.264Z,4.91
2024-01-07T03:00:52.512Z,4.79
2024-01-07T03:05:53.830Z,4.62
2024-01-07T03:10:55.067Z,4.66
2024-01-07T03:15:56.316Z,4.56
2024-01-07T03:20:57.617Z,4.72
2024-01-07T03:25:58.895Z,4.67
2024-01-07T03:31:00.180Z,4.36
2024-01-07T03:36:01.546Z,4.51
2024-01-07T03:41:02.806Z,4.60
2024-01-07T03:46:04.131Z,4.52
2024-01-07T03:51:05.630Z,4.52
2024-01-07T03:56:06.939Z,4.61
2024-01-07T04:01:08.272Z,4.68
2024-01-07T04:06:09.709Z,4.56
2024-01-07T04:11:11.080Z,4.43
2024-01-07T04:16:12.318Z,4.50
2024-01-07T04:21:13.666Z,4.76
2024-01-07T04:26:14.899Z,4.67
2024-01-07T04:31:16.197Z,4.81
2024-01-07T04:36:17.589Z,4.57
2024-01-07T04:41:18.794Z,4.50
2024-01-07T04:46:20.050Z,4.15
2024-01-07T04:51:21.257Z,4.03
2024-01-07T04:56:22.482Z,4.24
2024-01-07T05:01:23.817Z,4.22
2024-01-07T05:06:25.316Z,4.01
2024-01-07T05:11:26.613Z,3.90
2024-01-07T05:16:27.928Z,3.85
2024-01-07T05:21:29.160Z,3.56
2024-01-07T05:26:30.390Z,3.75
2024-01-07T05:31:31.879Z,3.65
2024-01-07T05:36:33.176Z,3.71
2024-01-07T05:41:34.430Z,3.80
2024-01-07T05:46:35.711Z,3.78
2024-01-07T05:51:36.957Z,3.69
2024-01-07T05:56:38.194Z,3.76
2024-01-07T06:01:39.407Z,3.79
2024-01-07T06:06:40.816Z,3.86
2024-01-07T06:11:42.299Z,3.79
2024-01-07T06:16:43.638Z,3.88
2024-01-07T06:21:44.898Z,3.88
2024-01-07T06:26:46.155Z,4.13
2024-01-07T06:31:47.658Z,4.16
2024-01-07T06:36:49.077Z,4.17
2024-01-07T06:41:50.353Z,4.21
2024-01-07T06:46:51.848Z,4.26
2024-01-07T06:51:53.148Z,4.46
2024-01-07T06:56:54.430Z,4.32
2024-01-07T07:01:57.455Z,4.32
2024-01-07T07:06:58.858Z,4.42
2024-01-07T07:12:00.382Z,4.33
2024-01-07T07:17:01.586Z,4.07
2024-01-07T07:22:02.878Z,3.96
2024-01-07T07:27:04.426Z,3.94
2024-01-07T07:32:05.650Z,4.09
2024-01-07T07:37:07.095Z,4.06
2024-01-07T07:42:08.386Z,4.01
2024-01-07T07:47:12.497Z,4.08
2024-01-07T07:52:15.393Z,4.25
2024-01-07T07:57:16.646Z,4.22
2024-01-07T08:02:17.948Z,4.43
2024-01-07T08:07:19.297Z,4.30
2024-01-07T08:12:20.535Z,4.18
2024-01-07T08:17:21.760Z,4.15
2024-01-07T08:22:22.996Z,4.21
2024-01-07T08:27:24.266Z,4.07
2024-01-07T08:32:25.689Z,3.75
2024-01-07T08:37:26.989Z,3.89
2024-01-07T08:42:30.027Z,3.89
2024-01-07T08:47:33.521Z,3.95
2024-01-07T08:52:36.547Z,3.68
2024-01-07T08:57:37.943Z,3.33
2024-01-07T09:02:43.762Z,3.59
2024-01-07T09:07:45.533Z,3.53
2024-01-07T09:12:47.351Z,3.51
2024-01-07T09:17:48.782Z,3.56
2024-01-07T09:22:50.101Z,3.32
2024-01-07T09:27:51.384Z,3.06
2024-01-07T09:32:52.632Z,3.02
2024-01-07T09:37:53.929Z,3.10
2024-01-07T09:42:55.348Z,2.91
2024-01-07T09:47:56.749Z,2.71
2024-01-07T09:53:03.229Z,2.62
2024-01-07T09:58:04.813Z,2.55
2024-01-07T10:03:06.105Z,2.60
2024-01-07T10:08:07.620Z,2.80
2024-01-07T10:13:09.720Z,2.73
2024-01-07T10:18:11.611Z,2.46
2024-01-07T10:23:13.012Z,2.44
2024-01-07T10:28:16.050Z,2.57
2024-01-07T10:33:17.561Z,2.58
2024-01-07T10:38:18.910Z,2.45
2024-01-07T10:43:20.539Z,2.53
2024-01-07T10:48:21.936Z,2.55
2024-01-07T10:53:25.988Z,2.49
2024-01-07T10:58:27.285Z,2.29
2024-01-07T11:03:28.573Z,2.36
2024-01-07T11:08:29.801Z,2.12
2024-01-07T11:13:39.058Z,2.37
2024-01-07T11:18:40.962Z,2.70
2024-01-07T11:23:58.461Z,2.71
2024-01-07T11:28:59.813Z,2.74
2024-01-07T11:34:01.124Z,3.90
2024-01-07T11:39:03.406Z,4.07
2024-01-07T11:44:06.967Z,3.04
2024-01-07T11:49:08.897Z,2.68
2024-01-07T11:54:10.160Z,2.78
2024-01-07T11:59:11.344Z,2.39
2024-01-07T12:04:13.330Z,2.44
2024-01-07T12:09:15.245Z,2.35
2024-01-07T12:14:16.544Z,2.52
2024-01-07T12:19:17.889Z,2.52
2024-01-07T12:24:20.107Z,2.60
2024-01-07T12:29:22.698Z,2.36
2024-01-07T12:34:27.193Z,2.20
2024-01-07T12:39:29.190Z,2.09
2024-01-07T12:44:30.683Z,2.15
2024-01-07T12:49:31.951Z,2.16
2024-01-07T12:54:33.294Z,2.12
2024-01-07T12:59:34.549Z,2.06
2024-01-07T13:04:35.899Z,2.25
2024-01-07T13:09:37.274Z,2.39
2024-01-07T13:14:38.526Z,2.60
2024-01-07T13:19:40.533Z,2.54
2024-01-07T13:24:42.018Z,2.46
2024-01-07T13:29:43.453Z,2.23
2024-01-07T13:34:45.045Z,2.37
2024-01-07T13:39:46.384Z,2.38
2024-01-07T13:44:48.034Z,2.34
2024-01-07T13:49:49.622Z,2.10
2024-01-07T13:54:50.920Z,2.29
2024-01-07T13:59:52.261Z,2.26
2024-01-07T14:04:53.585Z,2.62
2024-01-07T14:09:54.880Z,5.62
2024-01-07T14:14:56.122Z,4.96
2024-01-07T14:19:57.315Z,3.75
2024-01-07T14:24:58.765Z,2.88
2024-01-07T14:30:00.220Z,2.93
2024-01-07T14:35:02.304Z,2.77
2024-01-07T14:40:05.523Z,2.64
2024-01-07T14:45:06.853Z,2.84
2024-01-07T14:50:08.776Z,2.70
2024-01-07T14:55:10.167Z,2.31
2024-01-07T15:00:11.549Z,2.05
2024-01-07T15:05:12.925Z,1.81
2024-01-07T15:10:14.281Z,1.82
2024-01-07T15:15:15.724Z,2.48
2024-01-07T15:20:17.575Z,2.30
2024-01-07T15:25:19.052Z,2.26
2024-01-07T15:30:20.409Z,1.80
2024-01-07T15:35:21.710Z,1.41
2024-01-07T15:40:23.115Z,1.43
2024-01-07T15:45:24.386Z,1.73
2024-01-07T15:50:25.782Z,1.65
2024-01-07T15:55:27.671Z,1.57
2024-01-07T16:00:28.954Z,1.86
2024-01-07T16:05:31.200Z,1.99
2024-01-07T16:10:32.734Z,1.87
2024-01-07T16:15:34.063Z,1.75
2024-01-07T16:20:35.398Z,1.71
2024-01-07T16:25:37.152Z,1.88
2024-01-07T16:30:38.622Z,1.90
2024-01-07T16:35:41.786Z,1.94
2024-01-07T16:40:43.617Z,2.20
2024-01-07T16:45:44.872Z,2.06
2024-01-07T16:50:47.026Z,1.89
2024-01-07T16:55:48.541Z,1.99
2024-01-07T17:00:49.833Z,2.29
2024-01-07T17:05:51.325Z,2.09
2024-01-07T17:10:52.845Z,1.83
2024-01-07T17:15:54.368Z,1.86
2024-01-07T17:20:55.724Z,1.87
2024-01-07T17:25:57.815Z,1.93
2024-01-07T17:30:59.572Z,1.31
2024-01-07T17:36:00.801Z,1.23
2024-01-07T17:41:02.120Z,1.10
2024-01-07T17:46:03.485Z,1.04
2024-01-07T17:51:04.815Z,1.09
2024-01-07T17:56:08.594Z,0.90
2024-01-07T18:01:11.704Z,0.46
2024-01-07T18:06:13.088Z,0.37
2024-01-07T18:11:15.193Z,0.51
2024-01-07T18:16:16.525Z,0.55
2024-01-07T18:21:17.729Z,0.30
2024-01-07T18:26:19.028Z,0.45
2024-01-07T18:31:20.413Z,0.35
2024-01-07T18:36:21.608Z,0.38
2024-01-07T18:41:24.855Z,0.46
2024-01-07T18:46:26.310Z,0.39
2024-01-07T18:51:28.091Z,0.35
2024-01-07T18:56:29.896Z,0.04
2024-01-07T19:01:33.389Z,-0.07
2024-01-07T19:06:34.758Z,0.01
2024-01-07T19:11:36.401Z,-0.06
2024-01-07T19:16:37.657Z,-0.04
2024-01-07T19:21:38.954Z,-0.10
2024-01-07T19:26:44.731Z,-0.19
2024-01-07T19:31:47.412Z,-0.20
2024-01-07T19:36:49.015Z,-0.26
2024-01-07T19:41:50.792Z,-0.25
2024-01-07T19:46:52.272Z,-0.15
2024-01-07T19:51:53.718Z,-0.26
2024-01-07T19:56:55.489Z,-0.40
2024-01-07T20:01:58.647Z,-0.14
2024-01-07T20:07:03.997Z,-0.12
2024-01-07T20:12:05.530Z,-0.18
2024-01-07T20:17:07.813Z,-0.42
2024-01-07T20:22:12.977Z,-0.48
2024-01-07T20:27:16.820Z,-0.45
2024-01-07T20:32:21.177Z,-0.55
2024-01-07T20:37:22.546Z,-0.39
2024-01-07T20:42:35.816Z,-0.45
2024-01-07T20:47:42.236Z,-0.70
2024-01-07T20:52:44.087Z,-0.82
2024-01-07T20:57:49.799Z,-0.86
2024-01-07T21:02:51.285Z,-0.88
2024-01-07T21:07:52.798Z,-0.81
2024-01-07T21:12:57.388Z,-0.80
2024-01-07T21:18:03.520Z,-0.83
2024-01-07T21:23:04.988Z,-1.12
2024-01-07T21:28:08.147Z,-1.49
2024-01-07T21:33:09.730Z,-1.51
2024-01-07T21:38:11.292Z,-1.43
2024-01-07T21:43:13.171Z,-1.49
2024-01-07T21:48:14.471Z,-1.27
2024-01-07T21:53:15.854Z,-1.28
2024-01-07T21:58:17.661Z,-1.66
2024-01-07T22:03:19.711Z,-1.50
2024-01-07T22:08:21.065Z,-1.65
2024-01-07T22:13:24.440Z,-1.67
2024-01-07T22:18:25.747Z,-1.69
2024-01-07T22:23:27.450Z,-1.44
2024-01-07T22:28:29.072Z,-1.38
2024-01-07T22:33:32.189Z,-1.45
2024-01-07T22:38:33.779Z,-1.34
2024-01-07T22:43:35.127Z,-1.44
2024-01-07T22:48:36.608Z,-1.30
2024-01-07T22:53:38.161Z,-1.29
2024-01-07T22:58:39.889Z,-1.41
2024-01-07T23:03:41.162Z,-1.69
2024-01-07T23:08:42.399Z,-1.80
2024-01-07T23:13:43.855Z,-1.82
2024-01-07T23:18:45.167Z,-1.77
2024-01-07T23:23:46.793Z,-1.94
2024-01-07T23:28:48.305Z,-1.82
2024-01-07T23:33:49.741Z,-1.98
2024-01-07T23:38:51.119Z,-2.03
2024-01-07T23:43:52.684Z,-2.20
2024-01-07T23:48:54.214Z,-2.39
2024-01-07T23:53:55.552Z,-2.37
2024-01-07T23:58:57.876Z,-2.24
